sensor_id;sensor_type;location;lat;lon;timestamp;P1;durP1;ratioP1;P2;durP2;ratioP2
55487;SDS011;41352;53.158;6.788;2022-11-18T00:01:21;13.30;;;10.48;;
55487;SDS011;41352;53.158;6.788;2022-11-18T00:03:48;13.70;;;10.68;;
55487;SDS011;41352;53.158;6.788;2022-11-18T00:06:16;13.05;;;10.88;;
55487;SDS011;41352;53.158;6.788;2022-11-18T00:08:47;13.20;;;10.43;;
55487;SDS011;41352;53.158;6.788;2022-11-18T00:11:19;13.32;;;10.77;;
55487;SDS011;41352;53.158;6.788;2022-11-18T00:14:14;14.50;;;9.90;;
55487;SDS011;41352;53.158;6.788;2022-11-18T00:19:20;12.00;;;9.50;;
55487;SDS011;41352;53.158;6.788;2022-11-18T00:21:48;14.70;;;10.63;;
55487;SDS011;41352;53.158;6.788;2022-11-18T00:24:14;12.65;;;10.45;;
55487;SDS011;41352;53.158;6.788;2022-11-18T00:26:40;14.20;;;10.35;;
55487;SDS011;41352;53.158;6.788;2022-11-18T00:29:07;13.15;;;9.45;;
55487;SDS011;41352;53.158;6.788;2022-11-18T00:31:34;13.15;;;10.07;;
55487;SDS011;41352;53.158;6.788;2022-11-18T00:34:00;11.90;;;10.05;;
55487;SDS011;41352;53.158;6.788;2022-11-18T00:36:27;14.10;;;10.32;;
55487;SDS011;41352;53.158;6.788;2022-11-18T00:38:53;12.00;;;9.32;;
55487;SDS011;41352;53.158;6.788;2022-11-18T00:41:19;16.00;;;10.40;;
55487;SDS011;41352;53.158;6.788;2022-11-18T00:43:47;13.45;;;10.13;;
55487;SDS011;41352;53.158;6.788;2022-11-18T00:46:13;13.45;;;9.63;;
55487;SDS011;41352;53.158;6.788;2022-11-18T00:48:39;15.50;;;10.98;;
55487;SDS011;41352;53.158;6.788;2022-11-18T00:51:07;13.20;;;11.10;;
55487;SDS011;41352;53.158;6.788;2022-11-18T00:53:43;14.77;;;10.40;;
55487;SDS011;41352;53.158;6.788;2022-11-18T00:56:12;12.82;;;9.63;;
55487;SDS011;41352;53.158;6.788;2022-11-18T00:58:37;14.18;;;9.05;;
55487;SDS011;41352;53.158;6.788;2022-11-18T01:01:03;13.68;;;11.27;;
55487;SDS011;41352;53.158;6.788;2022-11-18T01:03:29;15.48;;;11.25;;
55487;SDS011;41352;53.158;6.788;2022-11-18T01:05:55;13.20;;;10.13;;
55487;SDS011;41352;53.158;6.788;2022-11-18T01:08:22;13.82;;;10.32;;
55487;SDS011;41352;53.158;6.788;2022-11-18T01:10:49;14.20;;;10.63;;
55487;SDS011;41352;53.158;6.788;2022-11-18T01:13:16;13.07;;;10.68;;
55487;SDS011;41352;53.158;6.788;2022-11-18T01:15:51;13.68;;;11.30;;
55487;SDS011;41352;53.158;6.788;2022-11-18T01:18:19;16.80;;;11.60;;
55487;SDS011;41352;53.158;6.788;2022-11-18T01:20:50;14.30;;;9.77;;
55487;SDS011;41352;53.158;6.788;2022-11-18T01:23:17;19.70;;;12.73;;
55487;SDS011;41352;53.158;6.788;2022-11-18T01:25:47;16.13;;;11.73;;
55487;SDS011;41352;53.158;6.788;2022-11-18T01:28:13;16.25;;;11.02;;
55487;SDS011;41352;53.158;6.788;2022-11-18T01:30:41;15.95;;;11.40;;
55487;SDS011;41352;53.158;6.788;2022-11-18T01:33:07;19.05;;;11.73;;
55487;SDS011;41352;53.158;6.788;2022-11-18T01:35:40;13.98;;;10.48;;
55487;SDS011;41352;53.158;6.788;2022-11-18T01:38:08;19.75;;;12.05;;
55487;SDS011;41352;53.158;6.788;2022-11-18T01:40:35;15.63;;;11.60;;
55487;SDS011;41352;53.158;6.788;2022-11-18T01:43:02;14.23;;;11.68;;
55487;SDS011;41352;53.158;6.788;2022-11-18T01:45:36;17.50;;;11.35;;
55487;SDS011;41352;53.158;6.788;2022-11-18T01:48:21;17.38;;;12.15;;
55487;SDS011;41352;53.158;6.788;2022-11-18T01:50:57;18.30;;;11.98;;
55487;SDS011;41352;53.158;6.788;2022-11-18T01:53:31;18.88;;;12.00;;
55487;SDS011;41352;53.158;6.788;2022-11-18T01:56:03;18.17;;;11.98;;
55487;SDS011;41352;53.158;6.788;2022-11-18T01:58:36;16.55;;;10.88;;
55487;SDS011;41352;53.158;6.788;2022-11-18T02:01:06;16.65;;;11.05;;
55487;SDS011;41352;53.158;6.788;2022-11-18T02:03:32;20.10;;;12.20;;
55487;SDS011;41352;53.158;6.788;2022-11-18T02:05:59;16.90;;;10.90;;
55487;SDS011;41352;53.158;6.788;2022-11-18T02:08:26;23.10;;;12.73;;
55487;SDS011;41352;53.158;6.788;2022-11-18T02:10:53;20.60;;;11.10;;
55487;SDS011;41352;53.158;6.788;2022-11-18T02:13:19;19.33;;;12.77;;
55487;SDS011;41352;53.158;6.788;2022-11-18T02:24:33;16.20;;;11.75;;
55487;SDS011;41352;53.158;6.788;2022-11-18T02:30:12;20.50;;;11.20;;
55487;SDS011;41352;53.158;6.788;2022-11-18T02:42:40;15.63;;;10.45;;
55487;SDS011;41352;53.158;6.788;2022-11-18T02:45:09;17.25;;;10.80;;
55487;SDS011;41352;53.158;6.788;2022-11-18T02:47:39;21.20;;;11.57;;
55487;SDS011;41352;53.158;6.788;2022-11-18T02:50:10;19.23;;;12.18;;
55487;SDS011;41352;53.158;6.788;2022-11-18T02:52:38;21.95;;;10.95;;
55487;SDS011;41352;53.158;6.788;2022-11-18T02:55:06;16.58;;;11.05;;
55487;SDS011;41352;53.158;6.788;2022-11-18T02:57:35;17.23;;;9.73;;
55487;SDS011;41352;53.158;6.788;2022-11-18T03:00:03;18.38;;;11.48;;
55487;SDS011;41352;53.158;6.788;2022-11-18T03:02:38;15.25;;;9.52;;
55487;SDS011;41352;53.158;6.788;2022-11-18T03:05:15;15.80;;;10.10;;
55487;SDS011;41352;53.158;6.788;2022-11-18T03:08:04;17.83;;;9.90;;
55487;SDS011;41352;53.158;6.788;2022-11-18T03:10:37;17.25;;;9.75;;
55487;SDS011;41352;53.158;6.788;2022-11-18T03:13:11;14.05;;;8.88;;
55487;SDS011;41352;53.158;6.788;2022-11-18T03:18:27;16.15;;;9.30;;
55487;SDS011;41352;53.158;6.788;2022-11-18T03:21:05;14.23;;;8.88;;
55487;SDS011;41352;53.158;6.788;2022-11-18T03:26:06;14.50;;;9.10;;
55487;SDS011;41352;53.158;6.788;2022-11-18T03:28:49;15.65;;;9.30;;
55487;SDS011;41352;53.158;6.788;2022-11-18T03:31:29;13.75;;;9.32;;
55487;SDS011;41352;53.158;6.788;2022-11-18T03:33:59;16.85;;;9.82;;
55487;SDS011;41352;53.158;6.788;2022-11-18T03:36:29;16.58;;;9.15;;
55487;SDS011;41352;53.158;6.788;2022-11-18T03:38:59;24.20;;;11.23;;
55487;SDS011;41352;53.158;6.788;2022-11-18T03:41:28;13.20;;;9.05;;
55487;SDS011;41352;53.158;6.788;2022-11-18T03:44:04;15.57;;;9.88;;
55487;SDS011;41352;53.158;6.788;2022-11-18T03:46:35;15.10;;;9.18;;
55487;SDS011;41352;53.158;6.788;2022-11-18T03:49:13;13.10;;;8.82;;
55487;SDS011;41352;53.158;6.788;2022-11-18T03:54:10;18.17;;;9.68;;
55487;SDS011;41352;53.158;6.788;2022-11-18T03:56:43;15.65;;;10.23;;
55487;SDS011;41352;53.158;6.788;2022-11-18T04:01:44;15.65;;;8.95;;
55487;SDS011;41352;53.158;6.788;2022-11-18T04:04:12;15.07;;;10.43;;
55487;SDS011;41352;53.158;6.788;2022-11-18T04:06:41;15.48;;;9.82;;
55487;SDS011;41352;53.158;6.788;2022-11-18T04:09:13;19.25;;;9.60;;
55487;SDS011;41352;53.158;6.788;2022-11-18T04:11:48;14.90;;;9.32;;
55487;SDS011;41352;53.158;6.788;2022-11-18T04:16:58;15.15;;;9.07;;
55487;SDS011;41352;53.158;6.788;2022-11-18T04:19:24;14.80;;;9.63;;
55487;SDS011;41352;53.158;6.788;2022-11-18T04:21:50;13.98;;;9.23;;
55487;SDS011;41352;53.158;6.788;2022-11-18T04:24:16;13.98;;;8.93;;
55487;SDS011;41352;53.158;6.788;2022-11-18T04:26:41;12.73;;;9.25;;
55487;SDS011;41352;53.158;6.788;2022-11-18T04:29:07;11.55;;;8.80;;
55487;SDS011;41352;53.158;6.788;2022-11-18T04:31:33;14.30;;;9.48;;
55487;SDS011;41352;53.158;6.788;2022-11-18T04:33:58;13.73;;;8.57;;
55487;SDS011;41352;53.158;6.788;2022-11-18T04:36:24;13.95;;;8.18;;
55487;SDS011;41352;53.158;6.788;2022-11-18T04:38:50;15.43;;;8.43;;
55487;SDS011;41352;53.158;6.788;2022-11-18T04:41:15;13.52;;;8.30;;
55487;SDS011;41352;53.158;6.788;2022-11-18T04:43:41;12.65;;;9.02;;
55487;SDS011;41352;53.158;6.788;2022-11-18T04:46:06;12.68;;;8.13;;
55487;SDS011;41352;53.158;6.788;2022-11-18T04:48:32;12.23;;;8.07;;
55487;SDS011;41352;53.158;6.788;2022-11-18T04:51:02;12.73;;;8.50;;
55487;SDS011;41352;53.158;6.788;2022-11-18T04:53:28;14.13;;;7.93;;
55487;SDS011;41352;53.158;6.788;2022-11-18T04:55:54;21.65;;;10.10;;
55487;SDS011;41352;53.158;6.788;2022-11-18T04:58:20;13.75;;;7.72;;
55487;SDS011;41352;53.158;6.788;2022-11-18T05:00:49;11.80;;;8.43;;
55487;SDS011;41352;53.158;6.788;2022-11-18T05:03:14;13.40;;;9.15;;
55487;SDS011;41352;53.158;6.788;2022-11-18T05:05:40;13.45;;;8.82;;
55487;SDS011;41352;53.158;6.788;2022-11-18T05:08:06;16.85;;;9.80;;
55487;SDS011;41352;53.158;6.788;2022-11-18T05:10:31;16.70;;;8.70;;
55487;SDS011;41352;53.158;6.788;2022-11-18T05:12:57;15.00;;;9.07;;
55487;SDS011;41352;53.158;6.788;2022-11-18T05:15:23;17.77;;;9.77;;
55487;SDS011;41352;53.158;6.788;2022-11-18T05:17:49;17.63;;;10.70;;
55487;SDS011;41352;53.158;6.788;2022-11-18T05:20:14;14.70;;;9.15;;
55487;SDS011;41352;53.158;6.788;2022-11-18T05:22:40;16.65;;;9.27;;
55487;SDS011;41352;53.158;6.788;2022-11-18T05:25:06;17.98;;;10.73;;
55487;SDS011;41352;53.158;6.788;2022-11-18T05:27:33;15.73;;;8.88;;
55487;SDS011;41352;53.158;6.788;2022-11-18T05:29:59;14.55;;;9.18;;
55487;SDS011;41352;53.158;6.788;2022-11-18T05:32:24;14.02;;;9.57;;
55487;SDS011;41352;53.158;6.788;2022-11-18T05:34:50;22.35;;;10.35;;
55487;SDS011;41352;53.158;6.788;2022-11-18T05:37:16;20.25;;;9.73;;
55487;SDS011;41352;53.158;6.788;2022-11-18T05:39:42;19.02;;;10.02;;
55487;SDS011;41352;53.158;6.788;2022-11-18T05:42:08;15.80;;;9.20;;
55487;SDS011;41352;53.158;6.788;2022-11-18T05:44:53;18.90;;;10.07;;
55487;SDS011;41352;53.158;6.788;2022-11-18T05:47:18;14.02;;;9.02;;
55487;SDS011;41352;53.158;6.788;2022-11-18T05:52:13;19.05;;;9.48;;
55487;SDS011;41352;53.158;6.788;2022-11-18T05:54:41;16.77;;;8.65;;
55487;SDS011;41352;53.158;6.788;2022-11-18T05:57:08;14.07;;;9.02;;
55487;SDS011;41352;53.158;6.788;2022-11-18T05:59:33;21.52;;;10.35;;
55487;SDS011;41352;53.158;6.788;2022-11-18T06:02:00;21.17;;;10.50;;
55487;SDS011;41352;53.158;6.788;2022-11-18T06:04:40;20.77;;;9.82;;
55487;SDS011;41352;53.158;6.788;2022-11-18T06:09:54;18.10;;;10.63;;
55487;SDS011;41352;53.158;6.788;2022-11-18T06:12:29;18.23;;;9.35;;
55487;SDS011;41352;53.158;6.788;2022-11-18T06:15:01;16.58;;;10.00;;
55487;SDS011;41352;53.158;6.788;2022-11-18T06:17:37;31.23;;;11.15;;
55487;SDS011;41352;53.158;6.788;2022-11-18T06:20:12;18.60;;;9.87;;
55487;SDS011;41352;53.158;6.788;2022-11-18T06:22:38;21.08;;;11.05;;
55487;SDS011;41352;53.158;6.788;2022-11-18T06:25:03;19.85;;;11.43;;
55487;SDS011;41352;53.158;6.788;2022-11-18T06:27:29;23.92;;;10.80;;
55487;SDS011;41352;53.158;6.788;2022-11-18T06:29:55;21.70;;;12.13;;
55487;SDS011;41352;53.158;6.788;2022-11-18T06:32:21;29.90;;;13.98;;
55487;SDS011;41352;53.158;6.788;2022-11-18T06:34:46;21.50;;;11.57;;
55487;SDS011;41352;53.158;6.788;2022-11-18T06:37:13;22.05;;;11.60;;
55487;SDS011;41352;53.158;6.788;2022-11-18T06:39:39;21.25;;;11.23;;
55487;SDS011;41352;53.158;6.788;2022-11-18T06:42:05;21.17;;;10.48;;
55487;SDS011;41352;53.158;6.788;2022-11-18T06:44:30;22.95;;;11.48;;
55487;SDS011;41352;53.158;6.788;2022-11-18T06:46:56;22.50;;;11.43;;
55487;SDS011;41352;53.158;6.788;2022-11-18T06:49:25;19.75;;;11.27;;
55487;SDS011;41352;53.158;6.788;2022-11-18T06:51:52;22.90;;;11.05;;
55487;SDS011;41352;53.158;6.788;2022-11-18T06:54:18;19.20;;;10.45;;
55487;SDS011;41352;53.158;6.788;2022-11-18T06:56:47;19.15;;;10.35;;
55487;SDS011;41352;53.158;6.788;2022-11-18T06:59:12;24.25;;;11.90;;
55487;SDS011;41352;53.158;6.788;2022-11-18T07:01:39;27.60;;;12.88;;
55487;SDS011;41352;53.158;6.788;2022-11-18T07:04:06;20.05;;;13.27;;
55487;SDS011;41352;53.158;6.788;2022-11-18T07:06:32;24.02;;;12.43;;
55487;SDS011;41352;53.158;6.788;2022-11-18T07:09:00;24.98;;;13.07;;
55487;SDS011;41352;53.158;6.788;2022-11-18T07:11:27;27.17;;;13.38;;
55487;SDS011;41352;53.158;6.788;2022-11-18T07:13:53;25.60;;;13.23;;
55487;SDS011;41352;53.158;6.788;2022-11-18T07:16:22;30.67;;;13.40;;
55487;SDS011;41352;53.158;6.788;2022-11-18T07:18:52;19.52;;;12.25;;
55487;SDS011;41352;53.158;6.788;2022-11-18T07:21:19;22.05;;;12.93;;
55487;SDS011;41352;53.158;6.788;2022-11-18T07:23:46;25.60;;;14.38;;
55487;SDS011;41352;53.158;6.788;2022-11-18T07:26:12;21.33;;;12.35;;
55487;SDS011;41352;53.158;6.788;2022-11-18T07:28:39;20.90;;;12.30;;
55487;SDS011;41352;53.158;6.788;2022-11-18T07:33:32;20.30;;;11.93;;
55487;SDS011;41352;53.158;6.788;2022-11-18T07:36:00;23.95;;;12.35;;
55487;SDS011;41352;53.158;6.788;2022-11-18T07:38:27;22.05;;;11.25;;
55487;SDS011;41352;53.158;6.788;2022-11-18T07:40:54;21.25;;;11.75;;
55487;SDS011;41352;53.158;6.788;2022-11-18T07:43:20;21.65;;;11.40;;
55487;SDS011;41352;53.158;6.788;2022-11-18T07:45:47;22.60;;;11.95;;
55487;SDS011;41352;53.158;6.788;2022-11-18T07:48:12;21.15;;;10.95;;
55487;SDS011;41352;53.158;6.788;2022-11-18T07:50:38;22.23;;;12.00;;
55487;SDS011;41352;53.158;6.788;2022-11-18T07:53:04;22.25;;;12.15;;
55487;SDS011;41352;53.158;6.788;2022-11-18T07:55:29;20.58;;;11.35;;
55487;SDS011;41352;53.158;6.788;2022-11-18T07:57:55;24.35;;;14.35;;
55487;SDS011;41352;53.158;6.788;2022-11-18T08:00:21;22.80;;;14.25;;
55487;SDS011;41352;53.158;6.788;2022-11-18T08:02:50;23.13;;;13.68;;
55487;SDS011;41352;53.158;6.788;2022-11-18T08:05:15;24.80;;;14.52;;
55487;SDS011;41352;53.158;6.788;2022-11-18T08:07:41;23.98;;;14.38;;
55487;SDS011;41352;53.158;6.788;2022-11-18T08:10:07;24.95;;;13.50;;
55487;SDS011;41352;53.158;6.788;2022-11-18T08:12:33;24.35;;;14.40;;
55487;SDS011;41352;53.158;6.788;2022-11-18T08:14:59;27.95;;;16.63;;
55487;SDS011;41352;53.158;6.788;2022-11-18T08:17:24;23.33;;;14.48;;
55487;SDS011;41352;53.158;6.788;2022-11-18T08:19:50;22.58;;;13.05;;
55487;SDS011;41352;53.158;6.788;2022-11-18T08:22:15;26.23;;;13.82;;
55487;SDS011;41352;53.158;6.788;2022-11-18T08:27:13;23.15;;;12.80;;
55487;SDS011;41352;53.158;6.788;2022-11-18T08:29:39;18.75;;;11.93;;
55487;SDS011;41352;53.158;6.788;2022-11-18T08:32:05;20.48;;;11.65;;
55487;SDS011;41352;53.158;6.788;2022-11-18T08:34:31;18.77;;;11.32;;
55487;SDS011;41352;53.158;6.788;2022-11-18T08:36:56;19.63;;;12.38;;
55487;SDS011;41352;53.158;6.788;2022-11-18T08:39:22;18.73;;;10.65;;
55487;SDS011;41352;53.158;6.788;2022-11-18T08:41:50;21.10;;;13.20;;
55487;SDS011;41352;53.158;6.788;2022-11-18T08:44:16;16.60;;;10.73;;
55487;SDS011;41352;53.158;6.788;2022-11-18T08:46:42;19.05;;;11.82;;
55487;SDS011;41352;53.158;6.788;2022-11-18T08:49:08;23.00;;;13.10;;
55487;SDS011;41352;53.158;6.788;2022-11-18T08:51:33;21.92;;;12.40;;
55487;SDS011;41352;53.158;6.788;2022-11-18T08:53:59;22.00;;;13.85;;
55487;SDS011;41352;53.158;6.788;2022-11-18T08:56:25;18.63;;;12.95;;
55487;SDS011;41352;53.158;6.788;2022-11-18T08:58:50;22.40;;;14.93;;
55487;SDS011;41352;53.158;6.788;2022-11-18T09:01:16;19.83;;;13.32;;
55487;SDS011;41352;53.158;6.788;2022-11-18T09:03:42;20.73;;;11.75;;
55487;SDS011;41352;53.158;6.788;2022-11-18T09:06:09;19.85;;;11.63;;
55487;SDS011;41352;53.158;6.788;2022-11-18T09:08:37;18.20;;;10.48;;
55487;SDS011;41352;53.158;6.788;2022-11-18T09:11:10;17.20;;;11.25;;
55487;SDS011;41352;53.158;6.788;2022-11-18T09:13:37;16.88;;;9.13;;
55487;SDS011;41352;53.158;6.788;2022-11-18T09:16:03;15.07;;;9.48;;
55487;SDS011;41352;53.158;6.788;2022-11-18T09:18:30;17.50;;;9.40;;
55487;SDS011;41352;53.158;6.788;2022-11-18T09:20:57;15.13;;;8.85;;
55487;SDS011;41352;53.158;6.788;2022-11-18T09:23:24;15.35;;;9.15;;
55487;SDS011;41352;53.158;6.788;2022-11-18T09:26:00;16.52;;;9.57;;
55487;SDS011;41352;53.158;6.788;2022-11-18T09:28:26;17.77;;;10.93;;
55487;SDS011;41352;53.158;6.788;2022-11-18T09:30:52;16.77;;;9.70;;
55487;SDS011;41352;53.158;6.788;2022-11-18T09:33:19;17.45;;;10.85;;
55487;SDS011;41352;53.158;6.788;2022-11-18T09:35:48;17.85;;;8.90;;
55487;SDS011;41352;53.158;6.788;2022-11-18T09:38:14;15.68;;;9.00;;
55487;SDS011;41352;53.158;6.788;2022-11-18T09:43:20;16.88;;;11.13;;
55487;SDS011;41352;53.158;6.788;2022-11-18T09:46:01;17.45;;;10.95;;
55487;SDS011;41352;53.158;6.788;2022-11-18T09:48:34;16.30;;;8.80;;
55487;SDS011;41352;53.158;6.788;2022-11-18T09:51:12;19.77;;;11.98;;
55487;SDS011;41352;53.158;6.788;2022-11-18T09:53:41;17.17;;;10.32;;
55487;SDS011;41352;53.158;6.788;2022-11-18T09:56:15;16.45;;;10.77;;
55487;SDS011;41352;53.158;6.788;2022-11-18T09:58:40;20.42;;;11.68;;
55487;SDS011;41352;53.158;6.788;2022-11-18T10:01:11;18.05;;;11.05;;
55487;SDS011;41352;53.158;6.788;2022-11-18T10:03:41;18.67;;;10.38;;
55487;SDS011;41352;53.158;6.788;2022-11-18T10:06:12;25.42;;;12.13;;
55487;SDS011;41352;53.158;6.788;2022-11-18T10:24:15;20.63;;;11.20;;
55487;SDS011;41352;53.158;6.788;2022-11-18T10:26:53;25.38;;;12.88;;
55487;SDS011;41352;53.158;6.788;2022-11-18T10:29:20;31.35;;;14.70;;
55487;SDS011;41352;53.158;6.788;2022-11-18T10:34:21;25.52;;;13.93;;
55487;SDS011;41352;53.158;6.788;2022-11-18T10:37:00;29.02;;;15.00;;
55487;SDS011;41352;53.158;6.788;2022-11-18T10:39:26;25.50;;;15.25;;
55487;SDS011;41352;53.158;6.788;2022-11-18T10:41:52;27.08;;;14.00;;
55487;SDS011;41352;53.158;6.788;2022-11-18T10:44:40;28.98;;;15.43;;
55487;SDS011;41352;53.158;6.788;2022-11-18T10:47:13;26.25;;;14.52;;
55487;SDS011;41352;53.158;6.788;2022-11-18T10:49:40;27.33;;;15.30;;
55487;SDS011;41352;53.158;6.788;2022-11-18T10:52:09;25.33;;;15.00;;
55487;SDS011;41352;53.158;6.788;2022-11-18T10:54:36;25.92;;;13.80;;
55487;SDS011;41352;53.158;6.788;2022-11-18T10:57:11;31.33;;;17.83;;
55487;SDS011;41352;53.158;6.788;2022-11-18T11:04:48;25.23;;;13.82;;
55487;SDS011;41352;53.158;6.788;2022-11-18T11:07:29;29.58;;;15.23;;
55487;SDS011;41352;53.158;6.788;2022-11-18T11:12:26;29.05;;;14.32;;
55487;SDS011;41352;53.158;6.788;2022-11-18T11:14:55;28.30;;;14.48;;
55487;SDS011;41352;53.158;6.788;2022-11-18T11:22:47;26.98;;;13.88;;
55487;SDS011;41352;53.158;6.788;2022-11-18T11:25:25;22.10;;;13.45;;
55487;SDS011;41352;53.158;6.788;2022-11-18T11:30:38;25.83;;;13.05;;
55487;SDS011;41352;53.158;6.788;2022-11-18T11:33:21;28.83;;;12.75;;
55487;SDS011;41352;53.158;6.788;2022-11-18T11:36:02;28.45;;;13.93;;
55487;SDS011;41352;53.158;6.788;2022-11-18T11:41:34;23.20;;;13.65;;
55487;SDS011;41352;53.158;6.788;2022-11-18T11:55:17;27.92;;;13.40;;
55487;SDS011;41352;53.158;6.788;2022-11-18T12:00:34;25.58;;;14.48;;
55487;SDS011;41352;53.158;6.788;2022-11-18T12:05:37;19.45;;;11.93;;
55487;SDS011;41352;53.158;6.788;2022-11-18T12:13:20;15.82;;;9.13;;
55487;SDS011;41352;53.158;6.788;2022-11-18T12:16:10;16.52;;;10.05;;
55487;SDS011;41352;53.158;6.788;2022-11-18T12:18:41;17.02;;;9.82;;
55487;SDS011;41352;53.158;6.788;2022-11-18T12:26:47;17.45;;;10.70;;
55487;SDS011;41352;53.158;6.788;2022-11-18T12:31:43;23.20;;;12.23;;
55487;SDS011;41352;53.158;6.788;2022-11-18T12:36:50;21.27;;;12.32;;
55487;SDS011;41352;53.158;6.788;2022-11-18T12:44:38;29.35;;;14.23;;
55487;SDS011;41352;53.158;6.788;2022-11-18T12:47:07;29.05;;;15.98;;
55487;SDS011;41352;53.158;6.788;2022-11-18T12:54:59;27.45;;;14.38;;
55487;SDS011;41352;53.158;6.788;2022-11-18T12:57:27;30.70;;;15.60;;
55487;SDS011;41352;53.158;6.788;2022-11-18T12:59:56;25.55;;;14.13;;
55487;SDS011;41352;53.158;6.788;2022-11-18T13:02:28;24.38;;;14.23;;
55487;SDS011;41352;53.158;6.788;2022-11-18T13:10:18;25.27;;;13.45;;
55487;SDS011;41352;53.158;6.788;2022-11-18T13:12:46;32.03;;;15.25;;
55487;SDS011;41352;53.158;6.788;2022-11-18T13:15:13;26.13;;;13.45;;
55487;SDS011;41352;53.158;6.788;2022-11-18T13:18:05;26.75;;;14.75;;
55487;SDS011;41352;53.158;6.788;2022-11-18T13:20:35;27.83;;;14.27;;
55487;SDS011;41352;53.158;6.788;2022-11-18T13:25:53;24.25;;;13.45;;
55487;SDS011;41352;53.158;6.788;2022-11-18T13:34:01;23.27;;;13.32;;
55487;SDS011;41352;53.158;6.788;2022-11-18T13:36:32;24.08;;;13.43;;
55487;SDS011;41352;53.158;6.788;2022-11-18T13:38:59;26.48;;;13.32;;
55487;SDS011;41352;53.158;6.788;2022-11-18T13:41:28;28.17;;;13.73;;
55487;SDS011;41352;53.158;6.788;2022-11-18T13:46:50;25.08;;;13.90;;
55487;SDS011;41352;53.158;6.788;2022-11-18T13:49:23;25.08;;;14.75;;
55487;SDS011;41352;53.158;6.788;2022-11-18T13:52:01;28.98;;;15.73;;
55487;SDS011;41352;53.158;6.788;2022-11-18T13:54:26;23.13;;;13.80;;
55487;SDS011;41352;53.158;6.788;2022-11-18T13:56:53;23.58;;;12.85;;
55487;SDS011;41352;53.158;6.788;2022-11-18T13:59:19;24.55;;;13.27;;
55487;SDS011;41352;53.158;6.788;2022-11-18T14:01:54;25.85;;;12.75;;
55487;SDS011;41352;53.158;6.788;2022-11-18T14:04:24;29.50;;;13.57;;
55487;SDS011;41352;53.158;6.788;2022-11-18T14:06:52;28.95;;;15.00;;
55487;SDS011;41352;53.158;6.788;2022-11-18T14:12:01;29.33;;;15.85;;
55487;SDS011;41352;53.158;6.788;2022-11-18T14:19:29;31.67;;;14.30;;
55487;SDS011;41352;53.158;6.788;2022-11-18T14:22:05;31.75;;;15.35;;
55487;SDS011;41352;53.158;6.788;2022-11-18T14:24:37;25.02;;;14.07;;
55487;SDS011;41352;53.158;6.788;2022-11-18T14:35:40;26.80;;;14.77;;
55487;SDS011;41352;53.158;6.788;2022-11-18T14:38:19;28.13;;;14.90;;
55487;SDS011;41352;53.158;6.788;2022-11-18T14:40:55;24.92;;;14.88;;
55487;SDS011;41352;53.158;6.788;2022-11-18T14:43:23;25.92;;;14.15;;
55487;SDS011;41352;53.158;6.788;2022-11-18T14:45:49;28.52;;;14.85;;
55487;SDS011;41352;53.158;6.788;2022-11-18T14:48:19;23.75;;;13.00;;
55487;SDS011;41352;53.158;6.788;2022-11-18T14:50:47;29.83;;;17.17;;
55487;SDS011;41352;53.158;6.788;2022-11-18T14:53:13;30.60;;;15.43;;
55487;SDS011;41352;53.158;6.788;2022-11-18T14:55:39;27.75;;;14.27;;
55487;SDS011;41352;53.158;6.788;2022-11-18T14:58:07;33.13;;;15.18;;
55487;SDS011;41352;53.158;6.788;2022-11-18T15:00:38;25.43;;;14.10;;
55487;SDS011;41352;53.158;6.788;2022-11-18T15:03:04;29.27;;;15.00;;
55487;SDS011;41352;53.158;6.788;2022-11-18T15:05:30;25.30;;;13.88;;
55487;SDS011;41352;53.158;6.788;2022-11-18T15:07:56;30.77;;;15.23;;
55487;SDS011;41352;53.158;6.788;2022-11-18T15:10:21;32.08;;;17.75;;
55487;SDS011;41352;53.158;6.788;2022-11-18T15:12:47;31.20;;;16.20;;
55487;SDS011;41352;53.158;6.788;2022-11-18T15:15:13;27.52;;;16.05;;
55487;SDS011;41352;53.158;6.788;2022-11-18T15:17:38;26.33;;;15.25;;
55487;SDS011;41352;53.158;6.788;2022-11-18T15:20:04;27.55;;;14.65;;
55487;SDS011;41352;53.158;6.788;2022-11-18T15:22:31;26.08;;;13.32;;
55487;SDS011;41352;53.158;6.788;2022-11-18T15:24:58;25.77;;;14.82;;
55487;SDS011;41352;53.158;6.788;2022-11-18T15:27:23;25.02;;;13.95;;
55487;SDS011;41352;53.158;6.788;2022-11-18T15:29:49;27.20;;;14.65;;
55487;SDS011;41352;53.158;6.788;2022-11-18T15:32:15;24.73;;;13.63;;
55487;SDS011;41352;53.158;6.788;2022-11-18T15:34:40;26.23;;;14.27;;
55487;SDS011;41352;53.158;6.788;2022-11-18T15:37:09;25.20;;;13.60;;
55487;SDS011;41352;53.158;6.788;2022-11-18T15:39:36;25.30;;;13.82;;
55487;SDS011;41352;53.158;6.788;2022-11-18T15:42:02;24.73;;;14.27;;
55487;SDS011;41352;53.158;6.788;2022-11-18T15:44:27;25.38;;;14.38;;
55487;SDS011;41352;53.158;6.788;2022-11-18T15:46:53;23.20;;;12.63;;
55487;SDS011;41352;53.158;6.788;2022-11-18T15:49:19;26.23;;;14.45;;
55487;SDS011;41352;53.158;6.788;2022-11-18T15:54:12;24.02;;;14.48;;
55487;SDS011;41352;53.158;6.788;2022-11-18T15:56:38;23.60;;;13.30;;
55487;SDS011;41352;53.158;6.788;2022-11-18T15:59:09;27.00;;;13.93;;
55487;SDS011;41352;53.158;6.788;2022-11-18T16:01:39;26.63;;;14.50;;
55487;SDS011;41352;53.158;6.788;2022-11-18T16:04:08;23.45;;;13.55;;
55487;SDS011;41352;53.158;6.788;2022-11-18T16:06:34;23.52;;;12.75;;
55487;SDS011;41352;53.158;6.788;2022-11-18T16:09:01;23.80;;;11.80;;
55487;SDS011;41352;53.158;6.788;2022-11-18T16:11:28;24.10;;;14.27;;
55487;SDS011;41352;53.158;6.788;2022-11-18T16:14:09;22.52;;;12.90;;
55487;SDS011;41352;53.158;6.788;2022-11-18T16:16:36;21.33;;;12.88;;
55487;SDS011;41352;53.158;6.788;2022-11-18T16:19:05;21.90;;;13.70;;
55487;SDS011;41352;53.158;6.788;2022-11-18T16:21:32;19.30;;;12.02;;
55487;SDS011;41352;53.158;6.788;2022-11-18T16:24:01;22.95;;;13.68;;
55487;SDS011;41352;53.158;6.788;2022-11-18T16:26:28;21.73;;;11.57;;
55487;SDS011;41352;53.158;6.788;2022-11-18T16:28:55;21.48;;;13.30;;
55487;SDS011;41352;53.158;6.788;2022-11-18T16:31:21;20.95;;;12.77;;
55487;SDS011;41352;53.158;6.788;2022-11-18T16:34:21;22.48;;;13.75;;
55487;SDS011;41352;53.158;6.788;2022-11-18T16:36:49;25.38;;;14.38;;
55487;SDS011;41352;53.158;6.788;2022-11-18T16:39:17;22.08;;;14.48;;
55487;SDS011;41352;53.158;6.788;2022-11-18T16:41:47;24.60;;;15.73;;
55487;SDS011;41352;53.158;6.788;2022-11-18T16:44:13;23.55;;;14.43;;
55487;SDS011;41352;53.158;6.788;2022-11-18T16:46:41;25.27;;;15.48;;
55487;SDS011;41352;53.158;6.788;2022-11-18T16:49:13;23.20;;;14.52;;
55487;SDS011;41352;53.158;6.788;2022-11-18T16:51:40;23.88;;;15.13;;
55487;SDS011;41352;53.158;6.788;2022-11-18T16:54:08;26.83;;;14.82;;
55487;SDS011;41352;53.158;6.788;2022-11-18T16:56:47;27.38;;;17.00;;
55487;SDS011;41352;53.158;6.788;2022-11-18T16:59:17;24.13;;;14.80;;
55487;SDS011;41352;53.158;6.788;2022-11-18T17:01:47;25.35;;;16.25;;
55487;SDS011;41352;53.158;6.788;2022-11-18T17:04:14;25.45;;;16.00;;
55487;SDS011;41352;53.158;6.788;2022-11-18T17:06:40;27.00;;;16.13;;
55487;SDS011;41352;53.158;6.788;2022-11-18T17:09:07;31.23;;;18.65;;
55487;SDS011;41352;53.158;6.788;2022-11-18T17:11:38;30.20;;;17.27;;
55487;SDS011;41352;53.158;6.788;2022-11-18T17:14:03;35.30;;;18.67;;
55487;SDS011;41352;53.158;6.788;2022-11-18T17:16:29;28.45;;;17.80;;
55487;SDS011;41352;53.158;6.788;2022-11-18T17:18:55;30.20;;;17.80;;